sensor_id;sensor_type;location;lat;lon;timestamp;pressure;altitude;pressure_sealevel;temperature;humidity
7376;BME280;3728;42.266;24.944;2022-10-26T00:01:20;99807.81;;;16.62;81.93
7376;BME280;3728;42.266;24.944;2022-10-26T00:03:48;99813.81;;;16.75;81.71
7376;BME280;3728;42.266;24.944;2022-10-26T00:06:19;99818.38;;;16.74;81.03
7376;BME280;3728;42.266;24.944;2022-10-26T00:08:48;99824.53;;;16.54;81.99
7376;BME280;3728;42.266;24.944;2022-10-26T00:11:18;99822.09;;;16.49;81.94
7376;BME280;3728;42.266;24.944;2022-10-26T00:13:46;99809.09;;;16.80;80.50
7376;BME280;3728;42.266;24.944;2022-10-26T00:16:15;99817.38;;;16.79;80.16
7376;BME280;3728;42.266;24.944;2022-10-26T00:18:46;99808.66;;;16.78;79.66
7376;BME280;3728;42.266;24.944;2022-10-26T00:21:14;99811.75;;;16.68;79.83
7376;BME280;3728;42.266;24.944;2022-10-26T00:23:42;99809.56;;;16.46;80.32
7376;BME280;3728;42.266;24.944;2022-10-26T00:26:10;99807.47;;;16.64;78.49
7376;BME280;3728;42.266;24.944;2022-10-26T00:28:38;99813.69;;;16.95;75.67
7376;BME280;3728;42.266;24.944;2022-10-26T00:31:10;99806.44;;;16.92;74.88
7376;BME280;3728;42.266;24.944;2022-10-26T00:33:39;99810.44;;;17.14;73.58
7376;BME280;3728;42.266;24.944;2022-10-26T00:36:07;99804.66;;;16.96;73.77
7376;BME280;3728;42.266;24.944;2022-10-26T00:38:36;99802.28;;;17.19;72.63
7376;BME280;3728;42.266;24.944;2022-10-26T00:41:04;99798.72;;;16.87;73.65
7376;BME280;3728;42.266;24.944;2022-10-26T00:43:36;99802.81;;;16.61;74.94
7376;BME280;3728;42.266;24.944;2022-10-26T00:46:06;99790.72;;;16.72;74.28
7376;BME280;3728;42.266;24.944;2022-10-26T00:48:40;99797.66;;;16.64;73.98
7376;BME280;3728;42.266;24.944;2022-10-26T00:51:24;99791.28;;;16.53;74.26
7376;BME280;3728;42.266;24.944;2022-10-26T00:54:03;99806.78;;;16.42;74.99
7376;BME280;3728;42.266;24.944;2022-10-26T00:56:33;99806.22;;;16.37;74.89
7376;BME280;3728;42.266;24.944;2022-10-26T00:59:06;99809.84;;;16.20;75.44
7376;BME280;3728;42.266;24.944;2022-10-26T01:01:40;99809.31;;;16.15;75.16
7376;BME280;3728;42.266;24.944;2022-10-26T01:04:11;99812.50;;;16.08;75.82
7376;BME280;3728;42.266;24.944;2022-10-26T01:06:41;99805.88;;;16.14;75.42
7376;BME280;3728;42.266;24.944;2022-10-26T01:09:09;99806.09;;;15.97;76.46
7376;BME280;3728;42.266;24.944;2022-10-26T01:11:38;99803.00;;;15.95;76.54
7376;BME280;3728;42.266;24.944;2022-10-26T01:14:08;99803.34;;;15.94;76.70
7376;BME280;3728;42.266;24.944;2022-10-26T01:16:59;99796.53;;;16.05;76.52
7376;BME280;3728;42.266;24.944;2022-10-26T01:25:02;99806.22;;;16.01;76.19
7376;BME280;3728;42.266;24.944;2022-10-26T01:27:40;99799.25;;;15.84;76.38
7376;BME280;3728;42.266;24.944;2022-10-26T01:30:24;99805.75;;;15.87;76.48
7376;BME280;3728;42.266;24.944;2022-10-26T01:36:11;99795.06;;;15.83;76.06
7376;BME280;3728;42.266;24.944;2022-10-26T01:38:56;99801.00;;;15.92;75.71
7376;BME280;3728;42.266;24.944;2022-10-26T01:41:26;99797.03;;;15.86;75.58
7376;BME280;3728;42.266;24.944;2022-10-26T01:44:06;99795.72;;;15.80;74.88
7376;BME280;3728;42.266;24.944;2022-10-26T01:46:40;99788.31;;;15.61;75.77
7376;BME280;3728;42.266;24.944;2022-10-26T01:49:12;99787.59;;;15.32;77.17
7376;BME280;3728;42.266;24.944;2022-10-26T01:51:42;99781.91;;;15.09;78.65
7376;BME280;3728;42.266;24.944;2022-10-26T01:54:11;99782.56;;;15.06;78.85
7376;BME280;3728;42.266;24.944;2022-10-26T01:56:40;99795.72;;;15.06;78.76
7376;BME280;3728;42.266;24.944;2022-10-26T01:59:33;99796.38;;;14.82;79.66
7376;BME280;3728;42.266;24.944;2022-10-26T02:05:31;99804.19;;;14.70;81.39
7376;BME280;3728;42.266;24.944;2022-10-26T02:08:28;99793.72;;;14.62;81.58
7376;BME280;3728;42.266;24.944;2022-10-26T02:14:31;99807.31;;;14.43;82.34
7376;BME280;3728;42.266;24.944;2022-10-26T02:17:25;99810.06;;;14.47;82.59
7376;BME280;3728;42.266;24.944;2022-10-26T02:20:05;99815.78;;;14.49;83.32
7376;BME280;3728;42.266;24.944;2022-10-26T02:22:48;99814.09;;;14.73;82.88
7376;BME280;3728;42.266;24.944;2022-10-26T02:25:22;99815.59;;;14.83;82.29
7376;BME280;3728;42.266;24.944;2022-10-26T02:28:03;99811.84;;;14.84;82.08
7376;BME280;3728;42.266;24.944;2022-10-26T02:30:34;99813.03;;;14.74;82.91
7376;BME280;3728;42.266;24.944;2022-10-26T02:33:04;99816.22;;;14.59;83.91
7376;BME280;3728;42.266;24.944;2022-10-26T02:35:35;99811.84;;;14.63;83.77
7376;BME280;3728;42.266;24.944;2022-10-26T02:38:08;99814.75;;;14.70;83.79
7376;BME280;3728;42.266;24.944;2022-10-26T02:40:37;99824.28;;;14.83;83.73
7376;BME280;3728;42.266;24.944;2022-10-26T02:43:09;99828.06;;;14.74;83.88
7376;BME280;3728;42.266;24.944;2022-10-26T02:45:46;99824.78;;;14.77;84.12
7376;BME280;3728;42.266;24.944;2022-10-26T02:48:18;99832.47;;;14.90;83.70
7376;BME280;3728;42.266;24.944;2022-10-26T02:54:09;99835.75;;;15.08;83.18
7376;BME280;3728;42.266;24.944;2022-10-26T02:56:56;99827.81;;;15.29;82.41
7376;BME280;3728;42.266;24.944;2022-10-26T02:59:30;99827.91;;;15.20;82.73
7376;BME280;3728;42.266;24.944;2022-10-26T03:02:00;99838.13;;;15.22;82.71
7376;BME280;3728;42.266;24.944;2022-10-26T03:04:32;99834.75;;;15.21;82.96
7376;BME280;3728;42.266;24.944;2022-10-26T03:07:01;99827.72;;;15.25;82.86
7376;BME280;3728;42.266;24.944;2022-10-26T03:09:28;99828.59;;;15.29;82.69
7376;BME280;3728;42.266;24.944;2022-10-26T03:11:56;99824.81;;;15.39;82.88
7376;BME280;3728;42.266;24.944;2022-10-26T03:14:23;99830.16;;;15.30;83.00
7376;BME280;3728;42.266;24.944;2022-10-26T03:16:51;99824.69;;;15.35;82.59
7376;BME280;3728;42.266;24.944;2022-10-26T03:19:18;99829.81;;;15.32;83.20
7376;BME280;3728;42.266;24.944;2022-10-26T03:21:46;99831.69;;;15.31;83.13
7376;BME280;3728;42.266;24.944;2022-10-26T03:24:13;99834.03;;;15.33;82.90
7376;BME280;3728;42.266;24.944;2022-10-26T03:26:41;99839.06;;;15.26;83.29
7376;BME280;3728;42.266;24.944;2022-10-26T03:29:08;99839.59;;;15.31;83.20
7376;BME280;3728;42.266;24.944;2022-10-26T03:31:35;99841.44;;;15.19;83.70
7376;BME280;3728;42.266;24.944;2022-10-26T03:34:03;99851.97;;;15.19;83.80
7376;BME280;3728;42.266;24.944;2022-10-26T03:36:30;99843.56;;;15.25;83.67
7376;BME280;3728;42.266;24.944;2022-10-26T03:39:01;99841.88;;;15.41;83.04
7376;BME280;3728;42.266;24.944;2022-10-26T03:41:28;99838.88;;;15.43;82.47
7376;BME280;3728;42.266;24.944;2022-10-26T03:43:56;99841.75;;;15.38;82.37
7376;BME280;3728;42.266;24.944;2022-10-26T03:46:24;99842.47;;;15.47;82.50
7376;BME280;3728;42.266;24.944;2022-10-26T03:48:51;99841.06;;;15.49;82.34
7376;BME280;3728;42.266;24.944;2022-10-26T03:51:19;99839.75;;;15.55;82.71
7376;BME280;3728;42.266;24.944;2022-10-26T03:53:47;99842.94;;;15.40;82.65
7376;BME280;3728;42.266;24.944;2022-10-26T03:56:14;99841.25;;;15.44;83.06
7376;BME280;3728;42.266;24.944;2022-10-26T03:58:41;99846.25;;;15.37;83.71
7376;BME280;3728;42.266;24.944;2022-10-26T04:01:09;99848.78;;;15.54;82.70
7376;BME280;3728;42.266;24.944;2022-10-26T04:03:36;99859.88;;;15.39;83.33
7376;BME280;3728;42.266;24.944;2022-10-26T04:06:04;99859.38;;;15.25;83.86
7376;BME280;3728;42.266;24.944;2022-10-26T04:08:31;99858.75;;;15.28;83.65
7376;BME280;3728;42.266;24.944;2022-10-26T04:10:59;99855.25;;;15.16;84.40
7376;BME280;3728;42.266;24.944;2022-10-26T04:13:30;99858.59;;;15.25;83.77
7376;BME280;3728;42.266;24.944;2022-10-26T04:15:58;99856.28;;;15.23;84.33
7376;BME280;3728;42.266;24.944;2022-10-26T04:18:25;99856.28;;;15.23;84.56
7376;BME280;3728;42.266;24.944;2022-10-26T04:20:53;99858.84;;;15.11;85.18
7376;BME280;3728;42.266;24.944;2022-10-26T04:23:20;99855.00;;;15.08;85.86
7376;BME280;3728;42.266;24.944;2022-10-26T04:25:48;99859.50;;;15.29;84.98
7376;BME280;3728;42.266;24.944;2022-10-26T04:28:15;99867.38;;;15.17;86.41
7376;BME280;3728;42.266;24.944;2022-10-26T04:30:43;99864.41;;;15.18;87.33
7376;BME280;3728;42.266;24.944;2022-10-26T04:33:10;99864.28;;;15.56;86.12
7376;BME280;3728;42.266;24.944;2022-10-26T04:35:38;99871.97;;;15.40;85.88
7376;BME280;3728;42.266;24.944;2022-10-26T04:38:06;99869.13;;;15.54;85.67
7376;BME280;3728;42.266;24.944;2022-10-26T04:40:34;99870.03;;;15.91;84.54
7376;BME280;3728;42.266;24.944;2022-10-26T04:43:01;99877.19;;;16.02;83.86
7376;BME280;3728;42.266;24.944;2022-10-26T04:45:29;99888.75;;;15.98;83.66
7376;BME280;3728;42.266;24.944;2022-10-26T04:48:04;99893.84;;;16.03;83.40
7376;BME280;3728;42.266;24.944;2022-10-26T04:50:34;99899.72;;;15.88;83.88
7376;BME280;3728;42.266;24.944;2022-10-26T04:53:06;99909.47;;;15.75;84.65
7376;BME280;3728;42.266;24.944;2022-10-26T04:55:34;99920.88;;;15.67;84.09
7376;BME280;3728;42.266;24.944;2022-10-26T04:58:05;99923.16;;;15.56;83.19
7376;BME280;3728;42.266;24.944;2022-10-26T05:00:33;99926.31;;;15.41;82.99
7376;BME280;3728;42.266;24.944;2022-10-26T05:03:02;99930.03;;;15.40;82.45
7376;BME280;3728;42.266;24.944;2022-10-26T05:05:33;99924.97;;;15.35;82.79
7376;BME280;3728;42.266;24.944;2022-10-26T05:08:05;99928.22;;;15.12;84.09
7376;BME280;3728;42.266;24.944;2022-10-26T05:10:32;99930.59;;;15.04;85.41
7376;BME280;3728;42.266;24.944;2022-10-26T05:13:00;99935.72;;;15.01;86.16
7376;BME280;3728;42.266;24.944;2022-10-26T05:15:28;99936.94;;;15.03;86.45
7376;BME280;3728;42.266;24.944;2022-10-26T05:17:59;99951.28;;;15.23;86.03
7376;BME280;3728;42.266;24.944;2022-10-26T05:20:30;99947.41;;;15.50;84.34
7376;BME280;3728;42.266;24.944;2022-10-26T05:23:00;99945.53;;;15.50;83.38
7376;BME280;3728;42.266;24.944;2022-10-26T05:25:31;99949.53;;;15.56;82.21
7376;BME280;3728;42.266;24.944;2022-10-26T05:28:03;99952.63;;;15.58;81.93
7376;BME280;3728;42.266;24.944;2022-10-26T05:30:33;99948.63;;;15.52;82.79
7376;BME280;3728;42.266;24.944;2022-10-26T05:33:01;99961.25;;;15.47;84.09
7376;BME280;3728;42.266;24.944;2022-10-26T05:35:29;99956.50;;;15.61;83.83
7376;BME280;3728;42.266;24.944;2022-10-26T05:37:57;99959.22;;;15.73;83.20
7376;BME280;3728;42.266;24.944;2022-10-26T05:40:25;99960.88;;;15.78;83.37
7376;BME280;3728;42.266;24.944;2022-10-26T05:42:58;99954.94;;;15.81;83.21
7376;BME280;3728;42.266;24.944;2022-10-26T05:45:27;99961.38;;;15.92;83.25
7376;BME280;3728;42.266;24.944;2022-10-26T05:47:55;99960.06;;;15.98;82.95
7376;BME280;3728;42.266;24.944;2022-10-26T05:50:28;99973.34;;;16.10;82.62
7376;BME280;3728;42.266;24.944;2022-10-26T05:52:56;99979.13;;;16.24;82.41
7376;BME280;3728;42.266;24.944;2022-10-26T05:55:24;99980.25;;;16.35;81.45
7376;BME280;3728;42.266;24.944;2022-10-26T05:57:52;99978.56;;;16.51;80.59
7376;BME280;3728;42.266;24.944;2022-10-26T06:00:22;99979.16;;;16.69;80.30
7376;BME280;3728;42.266;24.944;2022-10-26T06:08:21;99989.66;;;17.38;76.64
7376;BME280;3728;42.266;24.944;2022-10-26T06:10:50;99997.69;;;17.53;75.87
7376;BME280;3728;42.266;24.944;2022-10-26T06:13:19;99999.63;;;17.81;74.98
7376;BME280;3728;42.266;24.944;2022-10-26T06:31:21;100017.94;;;18.84;70.78
7376;BME280;3728;42.266;24.944;2022-10-26T06:33:52;100028.56;;;18.84;71.03
7376;BME280;3728;42.266;24.944;2022-10-26T06:36:26;100028.22;;;19.33;69.10
7376;BME280;3728;42.266;24.944;2022-10-26T06:39:01;100035.13;;;19.53;67.30
7376;BME280;3728;42.266;24.944;2022-10-26T06:41:34;100035.66;;;19.58;66.60
7376;BME280;3728;42.266;24.944;2022-10-26T06:44:03;100038.81;;;19.64;66.53
7376;BME280;3728;42.266;24.944;2022-10-26T06:46:45;100037.28;;;19.82;64.79
7376;BME280;3728;42.266;24.944;2022-10-26T06:49:26;100040.03;;;20.05;63.54
7376;BME280;3728;42.266;24.944;2022-10-26T06:52:14;100036.03;;;20.14;62.12
7376;BME280;3728;42.266;24.944;2022-10-26T06:54:53;100037.88;;;20.10;62.13
7376;BME280;3728;42.266;24.944;2022-10-26T06:57:23;100035.72;;;20.16;63.01
7376;BME280;3728;42.266;24.944;2022-10-26T06:59:56;100035.16;;;20.26;62.46
7376;BME280;3728;42.266;24.944;2022-10-26T07:02:28;100036.41;;;20.32;62.04
7376;BME280;3728;42.266;24.944;2022-10-26T07:04:56;100034.53;;;20.74;60.51
7376;BME280;3728;42.266;24.944;2022-10-26T07:07:26;100037.03;;;20.86;58.92
7376;BME280;3728;42.266;24.944;2022-10-26T07:09:55;100035.09;;;20.87;58.86
7376;BME280;3728;42.266;24.944;2022-10-26T07:12:23;100029.50;;;21.15;57.40
7376;BME280;3728;42.266;24.944;2022-10-26T07:14:52;100030.22;;;21.11;57.50
7376;BME280;3728;42.266;24.944;2022-10-26T07:17:20;100029.72;;;21.29;57.51
7376;BME280;3728;42.266;24.944;2022-10-26T07:19:47;100039.34;;;21.37;56.87
7376;BME280;3728;42.266;24.944;2022-10-26T07:22:15;100041.78;;;21.45;56.08
7376;BME280;3728;42.266;24.944;2022-10-26T07:24:42;100035.75;;;21.26;56.69
7376;BME280;3728;42.266;24.944;2022-10-26T07:27:10;100041.91;;;21.30;56.35
7376;BME280;3728;42.266;24.944;2022-10-26T07:29:37;100046.78;;;21.50;55.64
7376;BME280;3728;42.266;24.944;2022-10-26T07:32:05;100047.50;;;21.73;55.13
7376;BME280;3728;42.266;24.944;2022-10-26T07:34:33;100052.44;;;22.01;54.43
7376;BME280;3728;42.266;24.944;2022-10-26T07:37:00;100054.19;;;22.20;53.56
7376;BME280;3728;42.266;24.944;2022-10-26T07:39:28;100039.34;;;22.22;53.39
7376;BME280;3728;42.266;24.944;2022-10-26T07:41:58;100032.44;;;22.18;53.23
7376;BME280;3728;42.266;24.944;2022-10-26T07:44:25;100038.03;;;22.42;52.25
7376;BME280;3728;42.266;24.944;2022-10-26T07:46:53;100031.97;;;22.45;51.71
7376;BME280;3728;42.266;24.944;2022-10-26T07:49:20;100034.25;;;22.47;52.02
7376;BME280;3728;42.266;24.944;2022-10-26T07:51:53;100038.03;;;22.79;49.82
7376;BME280;3728;42.266;24.944;2022-10-26T07:54:20;100036.63;;;22.92;49.85
7376;BME280;3728;42.266;24.944;2022-10-26T07:56:48;100028.59;;;22.92;50.17
7376;BME280;3728;42.266;24.944;2022-10-26T07:59:16;100031.38;;;23.03;49.47
7376;BME280;3728;42.266;24.944;2022-10-26T08:01:44;100030.53;;;22.95;49.78
7376;BME280;3728;42.266;24.944;2022-10-26T08:04:12;100035.97;;;23.06;49.41
7376;BME280;3728;42.266;24.944;2022-10-26T08:06:40;100037.22;;;23.19;49.06
7376;BME280;3728;42.266;24.944;2022-10-26T08:09:07;100033.47;;;23.31;48.16
7376;BME280;3728;42.266;24.944;2022-10-26T08:11:35;100033.88;;;23.29;47.09
7376;BME280;3728;42.266;24.944;2022-10-26T08:14:02;100036.66;;;23.43;46.99
7376;BME280;3728;42.266;24.944;2022-10-26T08:16:30;100040.97;;;23.65;45.87
7376;BME280;3728;42.266;24.944;2022-10-26T08:19:00;100039.13;;;23.83;45.71
7376;BME280;3728;42.266;24.944;2022-10-26T08:21:27;100043.06;;;24.04;44.27
7376;BME280;3728;42.266;24.944;2022-10-26T08:24:07;100047.75;;;24.31;43.52
7376;BME280;3728;42.266;24.944;2022-10-26T08:26:35;100045.44;;;24.26;43.16
7376;BME280;3728;42.266;24.944;2022-10-26T08:29:03;100046.63;;;24.36;40.97
7376;BME280;3728;42.266;24.944;2022-10-26T08:31:31;100046.66;;;24.57;41.85
7376;BME280;3728;42.266;24.944;2022-10-26T08:33:59;100047.84;;;24.74;43.39
7376;BME280;3728;42.266;24.944;2022-10-26T08:36:27;100049.41;;;24.78;42.73
7376;BME280;3728;42.266;24.944;2022-10-26T08:38:55;100056.31;;;25.22;42.26
7376;BME280;3728;42.266;24.944;2022-10-26T08:41:43;100052.84;;;25.28;40.59
7376;BME280;3728;42.266;24.944;2022-10-26T08:44:44;100055.91;;;25.41;41.10
7376;BME280;3728;42.266;24.944;2022-10-26T08:47:17;100052.84;;;25.21;41.75
7376;BME280;3728;42.266;24.944;2022-10-26T08:49:58;100044.81;;;25.25;41.07
7376;BME280;3728;42.266;24.944;2022-10-26T08:52:51;100047.50;;;25.46;40.85
7376;BME280;3728;42.266;24.944;2022-10-26T08:55:39;100050.53;;;25.51;40.20
7376;BME280;3728;42.266;24.944;2022-10-26T08:58:20;100045.81;;;25.94;38.34
7376;BME280;3728;42.266;24.944;2022-10-26T09:00:51;100045.44;;;25.85;39.69
7376;BME280;3728;42.266;24.944;2022-10-26T09:03:19;100044.66;;;25.95;39.52
7376;BME280;3728;42.266;24.944;2022-10-26T09:08:46;100049.00;;;26.51;38.22
7376;BME280;3728;42.266;24.944;2022-10-26T09:11:51;100050.59;;;26.38;38.25
7376;BME280;3728;42.266;24.944;2022-10-26T09:26:02;100037.47;;;27.05;36.55
7376;BME280;3728;42.266;24.944;2022-10-26T09:28:34;100040.16;;;27.05;36.93
7376;BME280;3728;42.266;24.944;2022-10-26T09:31:03;100037.19;;;27.37;35.14
7376;BME280;3728;42.266;24.944;2022-10-26T09:33:34;100041.13;;;27.63;35.87
7376;BME280;3728;42.266;24.944;2022-10-26T09:36:16;100037.22;;;28.05;34.29
7376;BME280;3728;42.266;24.944;2022-10-26T09:38:57;100033.75;;;27.33;34.70
7376;BME280;3728;42.266;24.944;2022-10-26T09:41:45;100034.91;;;27.32;35.56
7376;BME280;3728;42.266;24.944;2022-10-26T09:44:50;100035.72;;;27.26;35.35
7376;BME280;3728;42.266;24.944;2022-10-26T09:47:31;100034.09;;;27.35;35.01
7376;BME280;3728;42.266;24.944;2022-10-26T09:52:40;100030.63;;;27.75;34.86
7376;BME280;3728;42.266;24.944;2022-10-26T09:55:11;100028.97;;;28.15;33.57
7376;BME280;3728;42.266;24.944;2022-10-26T09:57:42;100030.00;;;28.25;34.05
7376;BME280;3728;42.266;24.944;2022-10-26T10:00:14;100027.78;;;28.46;33.64
7376;BME280;3728;42.266;24.944;2022-10-26T10:02:44;100024.91;;;28.84;32.43
7376;BME280;3728;42.266;24.944;2022-10-26T10:05:28;100019.59;;;28.80;32.18
7376;BME280;3728;42.266;24.944;2022-10-26T10:08:24;100020.13;;;29.38;30.96
7376;BME280;3728;42.266;24.944;2022-10-26T10:10:58;100013.19;;;28.71;32.69
7376;BME280;3728;42.266;24.944;2022-10-26T10:13:36;100020.63;;;28.63;31.59
7376;BME280;3728;42.266;24.944;2022-10-26T10:16:22;100013.88;;;28.48;32.71
7376;BME280;3728;42.266;24.944;2022-10-26T10:18:55;100010.97;;;28.89;32.14
7376;BME280;3728;42.266;24.944;2022-10-26T10:24:40;100007.66;;;29.01;31.89
7376;BME280;3728;42.266;24.944;2022-10-26T10:29:46;100003.16;;;29.37;30.94
7376;BME280;3728;42.266;24.944;2022-10-26T10:32:20;100003.94;;;29.57;30.78
7376;BME280;3728;42.266;24.944;2022-10-26T10:34:53;100004.22;;;29.63;30.37
7376;BME280;3728;42.266;24.944;2022-10-26T10:37:38;99999.84;;;29.69;31.11
7376;BME280;3728;42.266;24.944;2022-10-26T10:40:26;99997.41;;;29.94;30.65
7376;BME280;3728;42.266;24.944;2022-10-26T10:43:25;99989.44;;;30.07;30.48
7376;BME280;3728;42.266;24.944;2022-10-26T10:45:55;99993.53;;;30.31;30.27
7376;BME280;3728;42.266;24.944;2022-10-26T10:48:28;99996.50;;;30.36;29.59
7376;BME280;3728;42.266;24.944;2022-10-26T10:51:04;99987.13;;;30.57;29.30
7376;BME280;3728;42.266;24.944;2022-10-26T10:56:44;99976.53;;;30.79;28.89
7376;BME280;3728;42.266;24.944;2022-10-26T10:59:37;99982.00;;;30.27;29.52
7376;BME280;3728;42.266;24.944;2022-10-26T11:08:31;99972.63;;;30.31;29.80
7376;BME280;3728;42.266;24.944;2022-10-26T11:11:30;99974.53;;;30.34;30.51
7376;BME280;3728;42.266;24.944;2022-10-26T11:16:51;99966.09;;;31.38;28.77
7376;BME280;3728;42.266;24.944;2022-10-26T11:19:44;99971.13;;;31.52;27.52
7376;BME280;3728;42.266;24.944;2022-10-26T11:22:28;99959.84;;;31.54;27.88
7376;BME280;3728;42.266;24.944;2022-10-26T11:25:14;99966.41;;;31.94;27.18
7376;BME280;3728;42.266;24.944;2022-10-26T11:30:24;99959.34;;;31.71;27.73
7376;BME280;3728;42.266;24.944;2022-10-26T11:33:01;99962.31;;;32.15;26.88
7376;BME280;3728;42.266;24.944;2022-10-26T11:35:43;99953.59;;;32.45;27.03
7376;BME280;3728;42.266;24.944;2022-10-26T11:38:35;99957.03;;;33.27;26.18
7376;BME280;3728;42.266;24.944;2022-10-26T11:41:32;99964.97;;;33.43;25.85
7376;BME280;3728;42.266;24.944;2022-10-26T11:44:18;99954.50;;;33.11;25.63
7376;BME280;3728;42.266;24.944;2022-10-26T11:47:06;99952.97;;;33.09;25.34
7376;BME280;3728;42.266;24.944;2022-10-26T11:50:14;99957.09;;;33.36;25.46
7376;BME280;3728;42.266;24.944;2022-10-26T11:55:47;99957.63;;;33.74;24.95
7376;BME280;3728;42.266;24.944;2022-10-26T11:58:17;99951.97;;;33.99;24.45
7376;BME280;3728;42.266;24.944;2022-10-26T12:01:08;99953.88;;;34.11;24.80
7376;BME280;3728;42.266;24.944;2022-10-26T12:03:45;99950.28;;;34.41;24.54
7376;BME280;3728;42.266;24.944;2022-10-26T12:06:19;99943.19;;;34.35;24.36
7376;BME280;3728;42.266;24.944;2022-10-26T12:09:05;99941.84;;;34.49;23.89
7376;BME280;3728;42.266;24.944;2022-10-26T12:14:25;99945.22;;;34.62;23.93
7376;BME280;3728;42.266;24.944;2022-10-26T12:19:58;99940.25;;;35.05;23.09
7376;BME280;3728;42.266;24.944;2022-10-26T12:22:37;99950.94;;;35.27;22.44
7376;BME280;3728;42.266;24.944;2022-10-26T12:27:55;99931.75;;;35.13;23.68
7376;BME280;3728;42.266;24.944;2022-10-26T12:30:27;99938.38;;;35.39;22.85
7376;BME280;3728;42.266;24.944;2022-10-26T12:32:59;99935.50;;;35.33;22.55
7376;BME280;3728;42.266;24.944;2022-10-26T12:35:47;99930.69;;;35.28;22.83
7376;BME280;3728;42.266;24.944;2022-10-26T12:43:44;99932.88;;;35.90;22.29
7376;BME280;3728;42.266;24.944;2022-10-26T12:48:47;99933.59;;;36.56;21.04
7376;BME280;3728;42.266;24.944;2022-10-26T12:56:56;99940.13;;;37.26;20.01
7376;BME280;3728;42.266;24.944;2022-10-26T12:59:54;99931.72;;;37.15;20.29
7376;BME280;3728;42.266;24.944;2022-10-26T13:02:55;99928.25;;;37.58;19.98
7376;BME280;3728;42.266;24.944;2022-10-26T13:08:15;99934.50;;;37.93;19.25
7376;BME280;3728;42.266;24.944;2022-10-26T13:11:05;99933.97;;;37.75;19.36
7376;BME280;3728;42.266;24.944;2022-10-26T13:13:39;99935.06;;;37.97;19.60
7376;BME280;3728;42.266;24.944;2022-10-26T13:16:11;99933.91;;;38.24;19.51
7376;BME280;3728;42.266;24.944;2022-10-26T13:18:43;99933.25;;;38.49;19.54
7376;BME280;3728;42.266;24.944;2022-10-26T13:21:15;99935.78;;;38.73;18.96
7376;BME280;3728;42.266;24.944;2022-10-26T13:33:59;99927.97;;;38.25;18.98
7376;BME280;3728;42.266;24.944;2022-10-26T13:36:36;99926.97;;;38.89;18.39
7376;BME280;3728;42.266;24.944;2022-10-26T13:39:19;99926.13;;;38.77;18.35
7376;BME280;3728;42.266;24.944;2022-10-26T13:41:59;99921.50;;;37.74;19.54
7376;BME280;3728;42.266;24.944;2022-10-26T13:44:35;99927.72;;;37.39;19.71
7376;BME280;3728;42.266;24.944;2022-10-26T13:47:15;99928.44;;;37.25;19.09
7376;BME280;3728;42.266;24.944;2022-10-26T13:50:07;99926.53;;;36.49;20.33
7376;BME280;3728;42.266;24.944;2022-10-26T13:52:42;99923.19;;;35.98;20.83
7376;BME280;3728;42.266;24.944;2022-10-26T13:55:25;99924.38;;;36.06;21.45
7376;BME280;3728;42.266;24.944;2022-10-26T13:58:27;99926.19;;;36.71;20.47
7376;BME280;3728;42.266;24.944;2022-10-26T14:03:40;99920.41;;;36.54;20.40
7376;BME280;3728;42.266;24.944;2022-10-26T14:06:28;99925.59;;;35.96;20.88
7376;BME280;3728;42.266;24.944;2022-10-26T14:09:02;99931.81;;;35.63;20.99
7376;BME280;3728;42.266;24.944;2022-10-26T14:11:35;99935.53;;;35.15;22.03
7376;BME280;3728;42.266;24.944;2022-10-26T14:14:18;99930.72;;;34.83;22.14
7376;BME280;3728;42.266;24.944;2022-10-26T14:16:49;99936.00;;;34.59;21.89
7376;BME280;3728;42.266;24.944;2022-10-26T14:19:25;99931.59;;;34.44;22.73
7376;BME280;3728;42.266;24.944;2022-10-26T14:21:55;99940.78;;;34.37;22.36
7376;BME280;3728;42.266;24.944;2022-10-26T14:24:30;99941.69;;;33.94;23.38
7376;BME280;3728;42.266;24.944;2022-10-26T14:27:17;99933.19;;;33.83;23.33
7376;BME280;3728;42.266;24.944;2022-10-26T14:29:46;99938.41;;;33.68;23.29
7376;BME280;3728;42.266;24.944;2022-10-26T14:32:34;99933.19;;;33.52;23.47
7376;BME280;3728;42.266;24.944;2022-10-26T14:35:02;99946.16;;;33.48;23.63
7376;BME280;3728;42.266;24.944;2022-10-26T14:37:57;99939.09;;;33.29;23.94
7376;BME280;3728;42.266;24.944;2022-10-26T14:40:31;99947.06;;;33.02;24.16
7376;BME280;3728;42.266;24.944;2022-10-26T14:43:03;99951.44;;;32.40;24.96
7376;BME280;3728;42.266;24.944;2022-10-26T14:45:33;99943.66;;;32.17;25.40
7376;BME280;3728;42.266;24.944;2022-10-26T14:48:28;99951.53;;;31.73;25.57
7376;BME280;3728;42.266;24.944;2022-10-26T14:51:14;99946.81;;;31.36;26.34
7376;BME280;3728;42.266;24.944;2022-10-26T14:53:51;99953.69;;;30.96;26.44
7376;BME280;3728;42.266;24.944;2022-10-26T15:04:41;99950.19;;;28.34;30.14
7376;BME280;3728;42.266;24.944;2022-10-26T15:07:33;99951.94;;;27.64;31.29
7376;BME280;3728;42.266;24.944;2022-10-26T15:10:03;99947.25;;;27.35;31.53
7376;BME280;3728;42.266;24.944;2022-10-26T15:12:33;99951.09;;;27.00;32.42
7376;BME280;3728;42.266;24.944;2022-10-26T15:17:56;99961.06;;;26.55;32.77
7376;BME280;3728;42.266;24.944;2022-10-26T15:20:27;99955.03;;;26.40;32.86
7376;BME280;3728;42.266;24.944;2022-10-26T15:23:01;99954.75;;;26.24;33.61
7376;BME280;3728;42.266;24.944;2022-10-26T15:25:32;99961.00;;;26.07;33.82
7376;BME280;3728;42.266;24.944;2022-10-26T15:28:17;99962.63;;;25.87;33.94
7376;BME280;3728;42.266;24.944;2022-10-26T15:36:24;99985.78;;;25.35;34.29
7376;BME280;3728;42.266;24.944;2022-10-26T15:38:53;99974.34;;;25.06;35.27
7376;BME280;3728;42.266;24.944;2022-10-26T15:41:26;99983.19;;;25.03;35.71
7376;BME280;3728;42.266;24.944;2022-10-26T15:43:57;99990.84;;;24.84;36.30
7376;BME280;3728;42.266;24.944;2022-10-26T15:46:35;99993.50;;;24.80;36.00
7376;BME280;3728;42.266;24.944;2022-10-26T15:49:07;99991.59;;;24.81;36.11
7376;BME280;3728;42.266;24.944;2022-10-26T15:51:47;99996.16;;;24.73;36.58
7376;BME280;3728;42.266;24.944;2022-10-26T15:54:15;100001.50;;;24.34;37.11
7376;BME280;3728;42.266;24.944;2022-10-26T15:56:46;100003.75;;;24.11;37.60
7376;BME280;3728;42.266;24.944;2022-10-26T15:59:15;100009.44;;;24.10;37.83